sensor_id;sensor_type;location;lat;lon;timestamp;pressure;altitude;pressure_sealevel;temperature;humidity
77041;BME280;65974;42.664;23.264;2023-07-13T00:01:51;94658.88;;;22.62;53.41
77041;BME280;65974;42.664;23.264;2023-07-13T00:04:18;94660.53;;;22.60;53.83
77041;BME280;65974;42.664;23.264;2023-07-13T00:06:46;94654.47;;;22.56;53.73
77041;BME280;65974;42.664;23.264;2023-07-13T00:09:16;94656.84;;;22.45;53.60
77041;BME280;65974;42.664;23.264;2023-07-13T00:11:42;94660.72;;;22.34;53.86
77041;BME280;65974;42.664;23.264;2023-07-13T00:14:09;94649.56;;;22.32;53.74
77041;BME280;65974;42.664;23.264;2023-07-13T00:16:36;94647.47;;;22.36;53.59
77041;BME280;65974;42.664;23.264;2023-07-13T00:19:02;94641.16;;;22.39;53.07
77041;BME280;65974;42.664;23.264;2023-07-13T00:21:27;94645.38;;;22.40;52.88
77041;BME280;65974;42.664;23.264;2023-07-13T00:23:53;94636.34;;;22.44;52.94
77041;BME280;65974;42.664;23.264;2023-07-13T00:26:18;94635.56;;;22.43;53.07
77041;BME280;65974;42.664;23.264;2023-07-13T00:28:44;94630.31;;;22.49;53.34
77041;BME280;65974;42.664;23.264;2023-07-13T00:31:11;94628.84;;;22.57;53.55
77041;BME280;65974;42.664;23.264;2023-07-13T00:33:36;94631.88;;;22.59;53.12
77041;BME280;65974;42.664;23.264;2023-07-13T00:36:02;94629.00;;;22.62;53.29
77041;BME280;65974;42.664;23.264;2023-07-13T00:38:28;94631.91;;;22.68;53.48
77041;BME280;65974;42.664;23.264;2023-07-13T00:40:53;94633.41;;;22.69;53.17
77041;BME280;65974;42.664;23.264;2023-07-13T00:43:21;94635.22;;;22.72;52.72
77041;BME280;65974;42.664;23.264;2023-07-13T00:48:21;94636.13;;;22.78;52.93
77041;BME280;65974;42.664;23.264;2023-07-13T00:50:50;94636.72;;;22.73;53.39
77041;BME280;65974;42.664;23.264;2023-07-13T00:53:17;94633.72;;;22.71;53.59
77041;BME280;65974;42.664;23.264;2023-07-13T00:55:42;94636.72;;;22.73;53.83
77041;BME280;65974;42.664;23.264;2023-07-13T00:58:08;94635.22;;;22.72;54.21
77041;BME280;65974;42.664;23.264;2023-07-13T01:00:36;94633.09;;;22.67;54.22
77041;BME280;65974;42.664;23.264;2023-07-13T01:03:04;94633.09;;;22.67;54.35
77041;BME280;65974;42.664;23.264;2023-07-13T01:05:32;94625.09;;;22.63;54.05
77041;BME280;65974;42.664;23.264;2023-07-13T01:07:59;94622.94;;;22.58;54.55
77041;BME280;65974;42.664;23.264;2023-07-13T01:10:25;94630.03;;;22.56;54.74
77041;BME280;65974;42.664;23.264;2023-07-13T01:12:52;94628.97;;;22.53;55.29
77041;BME280;65974;42.664;23.264;2023-07-13T01:18:24;94626.97;;;22.35;55.79
77041;BME280;65974;42.664;23.264;2023-07-13T01:21:00;94626.00;;;22.20;56.52
77041;BME280;65974;42.664;23.264;2023-07-13T01:23:26;94634.16;;;22.20;56.58
77041;BME280;65974;42.664;23.264;2023-07-13T01:25:53;94627.81;;;22.23;56.79
77041;BME280;65974;42.664;23.264;2023-07-13T01:28:21;94623.91;;;22.24;56.36
77041;BME280;65974;42.664;23.264;2023-07-13T01:30:47;94618.63;;;22.21;55.92
77041;BME280;65974;42.664;23.264;2023-07-13T01:33:14;94618.91;;;22.14;56.35
77041;BME280;65974;42.664;23.264;2023-07-13T01:35:40;94614.25;;;22.14;56.07
77041;BME280;65974;42.664;23.264;2023-07-13T01:38:06;94614.97;;;22.15;55.49
77041;BME280;65974;42.664;23.264;2023-07-13T01:40:33;94615.38;;;22.04;56.63
77041;BME280;65974;42.664;23.264;2023-07-13T01:43:00;94614.91;;;21.97;56.74
77041;BME280;65974;42.664;23.264;2023-07-13T01:45:25;94614.16;;;21.96;57.27
77041;BME280;65974;42.664;23.264;2023-07-13T01:47:50;94608.41;;;21.94;57.84
77041;BME280;65974;42.664;23.264;2023-07-13T01:50:16;94610.50;;;21.90;57.14
77041;BME280;65974;42.664;23.264;2023-07-13T01:52:41;94606.94;;;21.93;57.54
77041;BME280;65974;42.664;23.264;2023-07-13T01:55:07;94617.19;;;21.98;57.07
77041;BME280;65974;42.664;23.264;2023-07-13T01:57:33;94611.44;;;21.96;57.49
77041;BME280;65974;42.664;23.264;2023-07-13T01:59:59;94612.66;;;21.95;57.31
77041;BME280;65974;42.664;23.264;2023-07-13T02:02:24;94616.25;;;21.92;57.69
77041;BME280;65974;42.664;23.264;2023-07-13T02:04:49;94629.34;;;21.85;57.85
77041;BME280;65974;42.664;23.264;2023-07-13T02:07:15;94625.47;;;21.73;58.76
77041;BME280;65974;42.664;23.264;2023-07-13T02:09:41;94625.47;;;21.73;58.81
77041;BME280;65974;42.664;23.264;2023-07-13T02:12:07;94628.31;;;21.70;58.81
77041;BME280;65974;42.664;23.264;2023-07-13T02:14:34;94627.72;;;21.75;58.31
77041;BME280;65974;42.664;23.264;2023-07-13T02:17:00;94637.78;;;21.65;58.83
77041;BME280;65974;42.664;23.264;2023-07-13T02:19:25;94634.75;;;21.63;58.97
77041;BME280;65974;42.664;23.264;2023-07-13T02:21:50;94627.25;;;21.67;59.45
77041;BME280;65974;42.664;23.264;2023-07-13T02:24:16;94629.19;;;21.67;59.64
77041;BME280;65974;42.664;23.264;2023-07-13T02:26:46;94635.06;;;21.65;59.40
77041;BME280;65974;42.664;23.264;2023-07-13T02:29:11;94638.78;;;21.58;59.38
77041;BME280;65974;42.664;23.264;2023-07-13T02:31:37;94647.09;;;21.64;59.40
77041;BME280;65974;42.664;23.264;2023-07-13T02:34:03;94643.44;;;21.58;59.63
77041;BME280;65974;42.664;23.264;2023-07-13T02:36:30;94635.31;;;21.58;59.68
77041;BME280;65974;42.664;23.264;2023-07-13T02:38:55;94637.25;;;21.57;59.59
77041;BME280;65974;42.664;23.264;2023-07-13T02:41:21;94634.75;;;21.41;60.52
77041;BME280;65974;42.664;23.264;2023-07-13T02:43:48;94632.50;;;21.40;60.18
77041;BME280;65974;42.664;23.264;2023-07-13T02:46:13;94627.72;;;21.44;60.19
77041;BME280;65974;42.664;23.264;2023-07-13T02:48:39;94632.81;;;21.42;60.27
77041;BME280;65974;42.664;23.264;2023-07-13T02:51:05;94631.59;;;21.43;60.71
77041;BME280;65974;42.664;23.264;2023-07-13T02:53:31;94632.38;;;21.43;60.18
77041;BME280;65974;42.664;23.264;2023-07-13T02:55:57;94629.03;;;21.39;60.70
77041;BME280;65974;42.664;23.264;2023-07-13T02:58:22;94630.66;;;21.37;60.15
77041;BME280;65974;42.664;23.264;2023-07-13T03:00:48;94635.78;;;21.35;60.79
77041;BME280;65974;42.664;23.264;2023-07-13T03:03:15;94643.19;;;21.22;61.07
77041;BME280;65974;42.664;23.264;2023-07-13T03:05:42;94649.75;;;21.12;61.47
77041;BME280;65974;42.664;23.264;2023-07-13T03:08:10;94642.69;;;21.14;61.77
77041;BME280;65974;42.664;23.264;2023-07-13T03:10:36;94647.34;;;21.14;61.75
77041;BME280;65974;42.664;23.264;2023-07-13T03:13:02;94637.97;;;21.06;62.01
77041;BME280;65974;42.664;23.264;2023-07-13T03:15:27;94648.81;;;21.06;62.44
77041;BME280;65974;42.664;23.264;2023-07-13T03:17:53;94650.28;;;21.07;62.64
77041;BME280;65974;42.664;23.264;2023-07-13T03:20:19;94651.72;;;20.99;63.16
77041;BME280;65974;42.664;23.264;2023-07-13T03:22:45;94645.53;;;20.98;62.79
77041;BME280;65974;42.664;23.264;2023-07-13T03:25:10;94645.97;;;20.97;62.25
77041;BME280;65974;42.664;23.264;2023-07-13T03:27:36;94646.84;;;20.94;63.54
77041;BME280;65974;42.664;23.264;2023-07-13T03:30:02;94645.03;;;20.91;63.37
77041;BME280;65974;42.664;23.264;2023-07-13T03:32:28;94652.56;;;20.96;63.72
77041;BME280;65974;42.664;23.264;2023-07-13T03:34:53;94654.88;;;20.97;63.49
77041;BME280;65974;42.664;23.264;2023-07-13T03:37:19;94658.13;;;20.92;63.45
77041;BME280;65974;42.664;23.264;2023-07-13T03:39:44;94660.31;;;20.84;63.58
77041;BME280;65974;42.664;23.264;2023-07-13T03:42:10;94661.38;;;20.87;63.18
77041;BME280;65974;42.664;23.264;2023-07-13T03:44:35;94654.78;;;20.88;63.23
77041;BME280;65974;42.664;23.264;2023-07-13T03:47:01;94654.22;;;20.93;63.68
77041;BME280;65974;42.664;23.264;2023-07-13T03:49:26;94655.28;;;20.96;63.15
77041;BME280;65974;42.664;23.264;2023-07-13T03:51:51;94650.31;;;20.94;63.10
77041;BME280;65974;42.664;23.264;2023-07-13T03:54:17;94657.34;;;20.92;63.02
77041;BME280;65974;42.664;23.264;2023-07-13T03:56:42;94656.09;;;20.83;62.65
77041;BME280;65974;42.664;23.264;2023-07-13T03:59:08;94647.53;;;20.85;63.41
77041;BME280;65974;42.664;23.264;2023-07-13T04:01:33;94658.78;;;20.83;63.42
77041;BME280;65974;42.664;23.264;2023-07-13T04:03:59;94647.41;;;20.88;63.45
77041;BME280;65974;42.664;23.264;2023-07-13T04:06:29;94652.69;;;20.92;63.33
77041;BME280;65974;42.664;23.264;2023-07-13T04:08:57;94653.56;;;21.02;64.27
77041;BME280;65974;42.664;23.264;2023-07-13T04:11:26;94654.84;;;21.10;63.96
77041;BME280;65974;42.664;23.264;2023-07-13T04:13:52;94655.25;;;21.21;63.24
77041;BME280;65974;42.664;23.264;2023-07-13T04:16:18;94649.25;;;21.26;63.01
77041;BME280;65974;42.664;23.264;2023-07-13T04:18:45;94640.69;;;21.27;63.30
77041;BME280;65974;42.664;23.264;2023-07-13T04:21:10;94652.16;;;21.31;63.72
77041;BME280;65974;42.664;23.264;2023-07-13T04:23:37;94647.47;;;21.32;63.81
77041;BME280;65974;42.664;23.264;2023-07-13T04:26:02;94648.88;;;21.36;64.02
77041;BME280;65974;42.664;23.264;2023-07-13T04:28:28;94651.25;;;21.34;63.78
77041;BME280;65974;42.664;23.264;2023-07-13T04:30:53;94660.78;;;21.39;63.37
77041;BME280;65974;42.664;23.264;2023-07-13T04:33:19;94656.91;;;21.40;63.52
77041;BME280;65974;42.664;23.264;2023-07-13T04:35:49;94664.13;;;21.43;63.76
77041;BME280;65974;42.664;23.264;2023-07-13T04:38:15;94666.28;;;21.48;64.15
77041;BME280;65974;42.664;23.264;2023-07-13T04:40:44;94671.69;;;21.48;63.92
77041;BME280;65974;42.664;23.264;2023-07-13T04:43:10;94671.47;;;21.55;64.05
77041;BME280;65974;42.664;23.264;2023-07-13T04:45:36;94678.38;;;21.56;64.08
77041;BME280;65974;42.664;23.264;2023-07-13T04:48:02;94681.59;;;21.63;63.86
77041;BME280;65974;42.664;23.264;2023-07-13T04:50:27;94683.16;;;21.74;64.88
77041;BME280;65974;42.664;23.264;2023-07-13T04:52:53;94687.56;;;21.80;64.45
77041;BME280;65974;42.664;23.264;2023-07-13T04:55:19;94689.72;;;21.85;64.88
77041;BME280;65974;42.664;23.264;2023-07-13T04:57:45;94693.50;;;21.88;64.97
77041;BME280;65974;42.664;23.264;2023-07-13T05:00:11;94689.47;;;21.92;64.51
77041;BME280;65974;42.664;23.264;2023-07-13T05:02:38;94689.66;;;21.98;64.39
77041;BME280;65974;42.664;23.264;2023-07-13T05:05:05;94687.69;;;21.98;65.30
77041;BME280;65974;42.664;23.264;2023-07-13T05:07:31;94689.09;;;22.03;64.04
77041;BME280;65974;42.664;23.264;2023-07-13T05:09:59;94686.53;;;22.08;64.69
77041;BME280;65974;42.664;23.264;2023-07-13T05:12:24;94693.03;;;22.11;64.79
77041;BME280;65974;42.664;23.264;2023-07-13T05:14:50;94692.78;;;22.18;64.79
77041;BME280;65974;42.664;23.264;2023-07-13T05:17:15;94701.53;;;22.22;64.83
77041;BME280;65974;42.664;23.264;2023-07-13T05:19:41;94698.25;;;22.27;64.70
77041;BME280;65974;42.664;23.264;2023-07-13T05:22:06;94697.84;;;22.37;64.21
77041;BME280;65974;42.664;23.264;2023-07-13T05:24:32;94695.16;;;22.47;64.08
77041;BME280;65974;42.664;23.264;2023-07-13T05:26:58;94696.81;;;22.53;64.31
77041;BME280;65974;42.664;23.264;2023-07-13T05:29:23;94698.84;;;22.62;63.84
77041;BME280;65974;42.664;23.264;2023-07-13T05:31:49;94696.78;;;22.66;63.57
77041;BME280;65974;42.664;23.264;2023-07-13T05:34:15;94700.09;;;22.70;63.23
77041;BME280;65974;42.664;23.264;2023-07-13T05:36:41;94697.09;;;22.77;62.32
77041;BME280;65974;42.664;23.264;2023-07-13T05:39:06;94710.84;;;22.82;62.27
77041;BME280;65974;42.664;23.264;2023-07-13T05:41:32;94705.88;;;22.90;61.99
77041;BME280;65974;42.664;23.264;2023-07-13T05:43:57;94712.53;;;22.98;62.16
77041;BME280;65974;42.664;23.264;2023-07-13T05:46:22;94708.91;;;23.01;61.73
77041;BME280;65974;42.664;23.264;2023-07-13T05:48:48;94711.03;;;23.06;61.26
77041;BME280;65974;42.664;23.264;2023-07-13T05:51:13;94703.81;;;23.12;61.52
77041;BME280;65974;42.664;23.264;2023-07-13T05:53:39;94712.72;;;23.22;60.98
77041;BME280;65974;42.664;23.264;2023-07-13T05:56:04;94701.84;;;23.31;60.33
77041;BME280;65974;42.664;23.264;2023-07-13T05:58:30;94701.88;;;23.40;59.27
77041;BME280;65974;42.664;23.264;2023-07-13T06:01:08;94697.66;;;23.48;58.15
77041;BME280;65974;42.664;23.264;2023-07-13T06:03:34;94698.72;;;23.50;58.43
77041;BME280;65974;42.664;23.264;2023-07-13T06:06:00;94692.22;;;23.57;58.60
77041;BME280;65974;42.664;23.264;2023-07-13T06:08:27;94688.72;;;23.56;59.96
77041;BME280;65974;42.664;23.264;2023-07-13T06:10:54;94681.94;;;23.61;59.20
77041;BME280;65974;42.664;23.264;2023-07-13T06:13:19;94697.19;;;23.67;59.15
77041;BME280;65974;42.664;23.264;2023-07-13T06:15:52;94702.75;;;23.73;60.63
77041;BME280;65974;42.664;23.264;2023-07-13T06:18:17;94709.41;;;23.81;61.28
77041;BME280;65974;42.664;23.264;2023-07-13T06:20:42;94705.63;;;23.87;60.54
77041;BME280;65974;42.664;23.264;2023-07-13T06:23:08;94696.84;;;24.02;60.83
77041;BME280;65974;42.664;23.264;2023-07-13T06:25:33;94707.56;;;24.14;60.84
77041;BME280;65974;42.664;23.264;2023-07-13T06:27:59;94699.81;;;24.22;58.63
77041;BME280;65974;42.664;23.264;2023-07-13T06:30:24;94706.63;;;24.26;58.69
77041;BME280;65974;42.664;23.264;2023-07-13T06:32:50;94711.88;;;24.39;58.99
77041;BME280;65974;42.664;23.264;2023-07-13T06:35:15;94702.94;;;24.38;58.35
77041;BME280;65974;42.664;23.264;2023-07-13T06:37:41;94700.53;;;24.40;58.55
77041;BME280;65974;42.664;23.264;2023-07-13T06:40:07;94704.88;;;24.47;56.76
77041;BME280;65974;42.664;23.264;2023-07-13T06:42:32;94690.34;;;24.50;57.20
77041;BME280;65974;42.664;23.264;2023-07-13T06:44:58;94696.34;;;24.63;57.05
77041;BME280;65974;42.664;23.264;2023-07-13T06:47:23;94700.53;;;24.73;56.96
77041;BME280;65974;42.664;23.264;2023-07-13T06:49:49;94688.28;;;24.78;54.87
77041;BME280;65974;42.664;23.264;2023-07-13T06:52:14;94692.03;;;24.80;54.39
77041;BME280;65974;42.664;23.264;2023-07-13T06:54:39;94691.72;;;24.87;53.56
77041;BME280;65974;42.664;23.264;2023-07-13T06:57:05;94701.38;;;24.88;53.77
77041;BME280;65974;42.664;23.264;2023-07-13T06:59:30;94698.03;;;24.93;52.69
77041;BME280;65974;42.664;23.264;2023-07-13T07:01:56;94691.00;;;25.01;52.67
77041;BME280;65974;42.664;23.264;2023-07-13T07:04:21;94694.31;;;25.05;52.99
77041;BME280;65974;42.664;23.264;2023-07-13T07:06:47;94699.25;;;25.16;54.33
77041;BME280;65974;42.664;23.264;2023-07-13T07:09:12;94696.25;;;25.28;54.09
77041;BME280;65974;42.664;23.264;2023-07-13T07:11:38;94700.91;;;25.37;53.62
77041;BME280;65974;42.664;23.264;2023-07-13T07:14:04;94690.16;;;25.43;53.27
77041;BME280;65974;42.664;23.264;2023-07-13T07:16:30;94699.00;;;25.52;53.05
77041;BME280;65974;42.664;23.264;2023-07-13T07:18:56;94690.75;;;25.61;53.39
77041;BME280;65974;42.664;23.264;2023-07-13T07:21:21;94692.22;;;25.62;52.52
77041;BME280;65974;42.664;23.264;2023-07-13T07:23:48;94695.38;;;25.70;53.31
77041;BME280;65974;42.664;23.264;2023-07-13T07:26:13;94684.94;;;25.83;52.62
77041;BME280;65974;42.664;23.264;2023-07-13T07:28:39;94687.19;;;25.84;52.24
77041;BME280;65974;42.664;23.264;2023-07-13T07:31:04;94686.72;;;25.86;51.17
77041;BME280;65974;42.664;23.264;2023-07-13T07:33:30;94687.75;;;25.88;51.17
77041;BME280;65974;42.664;23.264;2023-07-13T07:35:55;94673.25;;;25.97;51.75
77041;BME280;65974;42.664;23.264;2023-07-13T07:38:21;94678.25;;;26.13;50.79
77041;BME280;65974;42.664;23.264;2023-07-13T07:40:46;94681.09;;;26.19;50.35
77041;BME280;65974;42.664;23.264;2023-07-13T07:43:12;94678.72;;;26.26;50.89
77041;BME280;65974;42.664;23.264;2023-07-13T07:45:39;94671.47;;;26.38;50.82
77041;BME280;65974;42.664;23.264;2023-07-13T07:48:05;94665.53;;;26.39;51.51
77041;BME280;65974;42.664;23.264;2023-07-13T07:50:31;94665.91;;;26.47;51.35
77041;BME280;65974;42.664;23.264;2023-07-13T07:52:57;94665.44;;;26.48;50.14
77041;BME280;65974;42.664;23.264;2023-07-13T07:55:23;94671.06;;;26.59;51.57
77041;BME280;65974;42.664;23.264;2023-07-13T07:57:49;94667.16;;;26.80;52.40
77041;BME280;65974;42.664;23.264;2023-07-13T08:00:15;94665.91;;;26.81;51.68
77041;BME280;65974;42.664;23.264;2023-07-13T08:02:41;94658.34;;;26.91;50.59
77041;BME280;65974;42.664;23.264;2023-07-13T08:05:08;94657.59;;;26.90;51.46
77041;BME280;65974;42.664;23.264;2023-07-13T08:07:34;94656.50;;;27.03;50.14
77041;BME280;65974;42.664;23.264;2023-07-13T08:10:00;94637.50;;;27.14;50.98
77041;BME280;65974;42.664;23.264;2023-07-13T08:12:25;94642.44;;;27.30;49.43
77041;BME280;65974;42.664;23.264;2023-07-13T08:14:51;94648.75;;;27.36;50.34
77041;BME280;65974;42.664;23.264;2023-07-13T08:17:23;94642.28;;;27.39;50.15
77041;BME280;65974;42.664;23.264;2023-07-13T08:19:49;94637.16;;;27.46;49.09
77041;BME280;65974;42.664;23.264;2023-07-13T08:22:15;94634.44;;;27.46;50.70
77041;BME280;65974;42.664;23.264;2023-07-13T08:24:40;94635.00;;;27.56;50.12
77041;BME280;65974;42.664;23.264;2023-07-13T08:27:08;94632.63;;;27.63;49.29
77041;BME280;65974;42.664;23.264;2023-07-13T08:29:33;94642.31;;;27.64;48.93
77041;BME280;65974;42.664;23.264;2023-07-13T08:31:58;94636.66;;;27.68;48.60
77041;BME280;65974;42.664;23.264;2023-07-13T08:34:24;94631.72;;;27.72;48.56
77041;BME280;65974;42.664;23.264;2023-07-13T08:36:49;94631.25;;;27.79;49.20
77041;BME280;65974;42.664;23.264;2023-07-13T08:39:15;94629.13;;;27.89;48.63
77041;BME280;65974;42.664;23.264;2023-07-13T08:41:40;94624.53;;;28.00;48.89
77041;BME280;65974;42.664;23.264;2023-07-13T08:44:16;94625.06;;;28.04;49.27
77041;BME280;65974;42.664;23.264;2023-07-13T08:46:45;94622.13;;;28.13;49.47
77041;BME280;65974;42.664;23.264;2023-07-13T08:54:16;94625.56;;;28.39;47.63
77041;BME280;65974;42.664;23.264;2023-07-13T08:56:44;94621.72;;;28.57;44.64
77041;BME280;65974;42.664;23.264;2023-07-13T08:59:14;94625.47;;;28.60;45.32
77041;BME280;65974;42.664;23.264;2023-07-13T09:04:22;94637.13;;;28.55;45.42
77041;BME280;65974;42.664;23.264;2023-07-13T09:12:19;94657.63;;;28.65;45.53
77041;BME280;65974;42.664;23.264;2023-07-13T09:14:52;94652.94;;;28.71;44.43
77041;BME280;65974;42.664;23.264;2023-07-13T09:17:22;94646.22;;;28.72;43.75
77041;BME280;65974;42.664;23.264;2023-07-13T09:22:44;94653.59;;;28.97;43.49
77041;BME280;65974;42.664;23.264;2023-07-13T09:25:32;94645.41;;;29.08;43.63
77041;BME280;65974;42.664;23.264;2023-07-13T09:28:20;94643.72;;;29.16;43.96
77041;BME280;65974;42.664;23.264;2023-07-13T09:33:20;94643.78;;;29.22;42.68
77041;BME280;65974;42.664;23.264;2023-07-13T09:35:45;94652.00;;;29.22;42.30
77041;BME280;65974;42.664;23.264;2023-07-13T09:38:12;94643.81;;;29.38;41.95
77041;BME280;65974;42.664;23.264;2023-07-13T09:40:46;94639.09;;;29.50;42.33
77041;BME280;65974;42.664;23.264;2023-07-13T09:43:15;94639.13;;;29.55;42.22
77041;BME280;65974;42.664;23.264;2023-07-13T09:45:45;94639.63;;;29.59;41.09
77041;BME280;65974;42.664;23.264;2023-07-13T09:48:14;94633.94;;;29.79;37.75
77041;BME280;65974;42.664;23.264;2023-07-13T09:50:40;94630.47;;;30.01;36.81
77041;BME280;65974;42.664;23.264;2023-07-13T09:53:17;94629.47;;;30.10;37.02
77041;BME280;65974;42.664;23.264;2023-07-13T09:55:47;94635.47;;;30.25;32.59
77041;BME280;65974;42.664;23.264;2023-07-13T09:58:16;94624.75;;;30.27;31.72
77041;BME280;65974;42.664;23.264;2023-07-13T10:00:44;94612.00;;;30.35;32.42
77041;BME280;65974;42.664;23.264;2023-07-13T10:03:38;94613.50;;;30.58;30.90
77041;BME280;65974;42.664;23.264;2023-07-13T10:08:39;94603.69;;;30.74;30.12
77041;BME280;65974;42.664;23.264;2023-07-13T10:11:10;94602.41;;;30.97;29.40
77041;BME280;65974;42.664;23.264;2023-07-13T10:13:41;94609.94;;;30.96;29.69
77041;BME280;65974;42.664;23.264;2023-07-13T10:16:09;94605.63;;;31.06;29.50
77041;BME280;65974;42.664;23.264;2023-07-13T10:18:53;94600.88;;;31.07;29.74
77041;BME280;65974;42.664;23.264;2023-07-13T10:21:21;94606.38;;;31.07;30.95
77041;BME280;65974;42.664;23.264;2023-07-13T10:23:54;94610.38;;;31.11;30.13
77041;BME280;65974;42.664;23.264;2023-07-13T10:26:30;94605.59;;;31.12;30.87
77041;BME280;65974;42.664;23.264;2023-07-13T10:29:00;94599.81;;;31.21;31.58
77041;BME280;65974;42.664;23.264;2023-07-13T10:31:26;94595.59;;;31.14;32.47
77041;BME280;65974;42.664;23.264;2023-07-13T10:33:51;94593.78;;;31.22;31.46
77041;BME280;65974;42.664;23.264;2023-07-13T10:36:33;94587.00;;;31.34;31.16
77041;BME280;65974;42.664;23.264;2023-07-13T10:39:02;94586.22;;;31.34;30.90
77041;BME280;65974;42.664;23.264;2023-07-13T10:41:30;94594.22;;;31.37;29.83
77041;BME280;65974;42.664;23.264;2023-07-13T10:43:58;94578.66;;;31.46;30.61
77041;BME280;65974;42.664;23.264;2023-07-13T10:46:25;94585.94;;;31.49;31.34
77041;BME280;65974;42.664;23.264;2023-07-13T10:49:05;94578.13;;;31.53;29.61
77041;BME280;65974;42.664;23.264;2023-07-13T10:51:32;94575.09;;;31.62;30.41
77041;BME280;65974;42.664;23.264;2023-07-13T10:56:38;94577.53;;;31.71;29.31
77041;BME280;65974;42.664;23.264;2023-07-13T10:59:26;94564.47;;;31.77;29.66
77041;BME280;65974;42.664;23.264;2023-07-13T11:01:57;94553.22;;;31.75;29.22
77041;BME280;65974;42.664;23.264;2023-07-13T11:04:25;94553.16;;;31.80;28.66
77041;BME280;65974;42.664;23.264;2023-07-13T11:06:57;94546.81;;;31.91;29.81
77041;BME280;65974;42.664;23.264;2023-07-13T11:12:07;94549.69;;;32.09;28.43
77041;BME280;65974;42.664;23.264;2023-07-13T11:14:37;94541.16;;;32.13;30.21
77041;BME280;65974;42.664;23.264;2023-07-13T11:25:32;94523.91;;;32.31;29.07
77041;BME280;65974;42.664;23.264;2023-07-13T11:28:23;94521.56;;;32.41;29.51
77041;BME280;65974;42.664;23.264;2023-07-13T11:31:00;94524.75;;;32.50;28.63
77041;BME280;65974;42.664;23.264;2023-07-13T11:36:12;94523.59;;;32.64;28.92
77041;BME280;65974;42.664;23.264;2023-07-13T11:38:40;94519.88;;;32.62;28.46
77041;BME280;65974;42.664;23.264;2023-07-13T11:43:49;94522.66;;;32.80;28.72
77041;BME280;65974;42.664;23.264;2023-07-13T11:46:27;94522.81;;;32.88;26.63
77041;BME280;65974;42.664;23.264;2023-07-13T11:48:54;94508.59;;;33.03;27.06
77041;BME280;65974;42.664;23.264;2023-07-13T11:51:46;94511.59;;;33.05;26.79
77041;BME280;65974;42.664;23.264;2023-07-13T11:54:34;94507.28;;;33.09;27.85
77041;BME280;65974;42.664;23.264;2023-07-13T11:59:43;94494.41;;;33.12;26.63
77041;BME280;65974;42.664;23.264;2023-07-13T12:02:17;94494.78;;;33.21;26.97
77041;BME280;65974;42.664;23.264;2023-07-13T12:04:49;94495.63;;;33.35;27.11
77041;BME280;65974;42.664;23.264;2023-07-13T12:07:18;94491.94;;;33.45;27.45
77041;BME280;65974;42.664;23.264;2023-07-13T12:09:45;94493.88;;;33.50;26.62
77041;BME280;65974;42.664;23.264;2023-07-13T12:12:18;94483.94;;;33.60;27.71
77041;BME280;65974;42.664;23.264;2023-07-13T12:14:44;94480.47;;;33.73;27.71
77041;BME280;65974;42.664;23.264;2023-07-13T12:17:18;94483.34;;;33.81;26.97
77041;BME280;65974;42.664;23.264;2023-07-13T12:19:44;94476.47;;;33.87;28.33
77041;BME280;65974;42.664;23.264;2023-07-13T12:22:13;94473.50;;;33.98;26.03
77041;BME280;65974;42.664;23.264;2023-07-13T12:24:40;94468.97;;;34.01;27.78
77041;BME280;65974;42.664;23.264;2023-07-13T12:27:25;94461.72;;;33.98;27.29
77041;BME280;65974;42.664;23.264;2023-07-13T12:29:56;94457.63;;;34.17;27.16
77041;BME280;65974;42.664;23.264;2023-07-13T12:32:24;94456.00;;;34.48;26.48
77041;BME280;65974;42.664;23.264;2023-07-13T12:34:54;94455.72;;;34.52;25.64
77041;BME280;65974;42.664;23.264;2023-07-13T12:37:19;94459.34;;;34.60;26.19
77041;BME280;65974;42.664;23.264;2023-07-13T12:39:47;94456.97;;;34.77;25.76
77041;BME280;65974;42.664;23.264;2023-07-13T12:42:27;94445.91;;;34.77;24.61
77041;BME280;65974;42.664;23.264;2023-07-13T12:47:42;94440.13;;;34.88;24.67
77041;BME280;65974;42.664;23.264;2023-07-13T12:50:17;94432.25;;;34.92;25.60
77041;BME280;65974;42.664;23.264;2023-07-13T12:52:44;94436.69;;;35.08;25.43
77041;BME280;65974;42.664;23.264;2023-07-13T12:55:16;94435.22;;;35.28;24.65
77041;BME280;65974;42.664;23.264;2023-07-13T12:57:54;94441.13;;;35.45;24.46
77041;BME280;65974;42.664;23.264;2023-07-13T13:00:31;94437.22;;;35.61;23.90
77041;BME280;65974;42.664;23.264;2023-07-13T13:03:05;94432.75;;;35.78;23.89
77041;BME280;65974;42.664;23.264;2023-07-13T13:05:33;94425.94;;;36.00;22.92
77041;BME280;65974;42.664;23.264;2023-07-13T13:07:59;94426.22;;;36.17;23.43
77041;BME280;65974;42.664;23.264;2023-07-13T13:10:24;94422.97;;;36.26;23.25
77041;BME280;65974;42.664;23.264;2023-07-13T13:12:50;94421.03;;;36.42;23.01
77041;BME280;65974;42.664;23.264;2023-07-13T13:15:15;94413.53;;;36.57;23.10
77041;BME280;65974;42.664;23.264;2023-07-13T13:17:42;94413.03;;;36.74;23.21
77041;BME280;65974;42.664;23.264;2023-07-13T13:20:14;94406.09;;;36.88;22.97
77041;BME280;65974;42.664;23.264;2023-07-13T13:22:41;94410.88;;;37.39;22.73
77041;BME280;65974;42.664;23.264;2023-07-13T13:25:12;94409.78;;;37.57;22.13
77041;BME280;65974;42.664;23.264;2023-07-13T13:27:40;94408.31;;;37.86;21.38
77041;BME280;65974;42.664;23.264;2023-07-13T13:30:24;94398.63;;;38.17;20.88
77041;BME280;65974;42.664;23.264;2023-07-13T13:32:50;94399.72;;;38.37;20.66
77041;BME280;65974;42.664;23.264;2023-07-13T13:35:17;94403.25;;;38.37;20.79
77041;BME280;65974;42.664;23.264;2023-07-13T13:37:44;94397.84;;;38.47;20.62
77041;BME280;65974;42.664;23.264;2023-07-13T13:40:20;94389.72;;;38.34;21.14
77041;BME280;65974;42.664;23.264;2023-07-13T13:42:46;94394.13;;;38.44;20.83
77041;BME280;65974;42.664;23.264;2023-07-13T13:45:12;94387.00;;;38.73;20.26